sensor_id;sensor_type;location;lat;lon;timestamp;P1;durP1;ratioP1;P2;durP2;ratioP2
59486;SDS011;45298;54.918;73.504;2023-06-14T00:01:53;20.38;;;8.10;;
59486;SDS011;45298;54.918;73.504;2023-06-14T00:04:23;18.48;;;7.82;;
59486;SDS011;45298;54.918;73.504;2023-06-14T00:06:53;25.48;;;7.97;;
59486;SDS011;45298;54.918;73.504;2023-06-14T00:09:24;21.65;;;8.43;;
59486;SDS011;45298;54.918;73.504;2023-06-14T00:11:53;21.55;;;8.57;;
59486;SDS011;45298;54.918;73.504;2023-06-14T00:14:22;19.80;;;8.70;;
59486;SDS011;45298;54.918;73.504;2023-06-14T00:16:51;18.92;;;8.90;;
59486;SDS011;45298;54.918;73.504;2023-06-14T00:19:26;22.52;;;8.80;;
59486;SDS011;45298;54.918;73.504;2023-06-14T00:21:55;19.17;;;8.60;;
59486;SDS011;45298;54.918;73.504;2023-06-14T00:24:25;21.17;;;8.65;;
59486;SDS011;45298;54.918;73.504;2023-06-14T00:26:54;23.10;;;8.77;;
59486;SDS011;45298;54.918;73.504;2023-06-14T00:29:26;29.88;;;9.30;;
59486;SDS011;45298;54.918;73.504;2023-06-14T00:31:56;19.70;;;8.35;;
59486;SDS011;45298;54.918;73.504;2023-06-14T00:34:26;22.83;;;8.88;;
59486;SDS011;45298;54.918;73.504;2023-06-14T00:36:55;15.05;;;8.13;;
59486;SDS011;45298;54.918;73.504;2023-06-14T00:39:23;18.60;;;7.97;;
59486;SDS011;45298;54.918;73.504;2023-06-14T00:41:52;23.65;;;8.30;;
59486;SDS011;45298;54.918;73.504;2023-06-14T00:44:21;17.80;;;7.78;;
59486;SDS011;45298;54.918;73.504;2023-06-14T00:46:50;18.42;;;7.75;;
59486;SDS011;45298;54.918;73.504;2023-06-14T00:49:22;19.38;;;7.32;;
59486;SDS011;45298;54.918;73.504;2023-06-14T00:51:52;21.85;;;6.65;;
59486;SDS011;45298;54.918;73.504;2023-06-14T00:54:20;15.60;;;6.43;;
59486;SDS011;45298;54.918;73.504;2023-06-14T00:56:52;17.52;;;6.70;;
59486;SDS011;45298;54.918;73.504;2023-06-14T00:59:21;21.27;;;6.40;;
59486;SDS011;45298;54.918;73.504;2023-06-14T01:01:50;13.02;;;5.53;;
59486;SDS011;45298;54.918;73.504;2023-06-14T01:04:19;20.15;;;5.95;;
59486;SDS011;45298;54.918;73.504;2023-06-14T01:11:59;14.98;;;5.47;;
59486;SDS011;45298;54.918;73.504;2023-06-14T01:14:34;17.67;;;6.20;;
59486;SDS011;45298;54.918;73.504;2023-06-14T01:17:04;14.48;;;5.45;;
59486;SDS011;45298;54.918;73.504;2023-06-14T01:19:36;12.55;;;5.32;;
59486;SDS011;45298;54.918;73.504;2023-06-14T01:22:05;16.05;;;5.22;;
59486;SDS011;45298;54.918;73.504;2023-06-14T01:24:34;25.25;;;5.20;;
59486;SDS011;45298;54.918;73.504;2023-06-14T01:27:03;15.40;;;5.30;;
59486;SDS011;45298;54.918;73.504;2023-06-14T01:29:32;17.35;;;5.13;;
59486;SDS011;45298;54.918;73.504;2023-06-14T01:32:04;14.98;;;4.57;;
59486;SDS011;45298;54.918;73.504;2023-06-14T01:34:34;14.57;;;4.90;;
59486;SDS011;45298;54.918;73.504;2023-06-14T01:37:03;11.75;;;4.18;;
59486;SDS011;45298;54.918;73.504;2023-06-14T01:39:32;11.30;;;4.32;;
59486;SDS011;45298;54.918;73.504;2023-06-14T01:42:02;12.05;;;3.80;;
59486;SDS011;45298;54.918;73.504;2023-06-14T01:44:34;11.02;;;3.63;;
59486;SDS011;45298;54.918;73.504;2023-06-14T01:47:03;9.65;;;3.20;;
59486;SDS011;45298;54.918;73.504;2023-06-14T01:49:33;6.60;;;3.15;;
59486;SDS011;45298;54.918;73.504;2023-06-14T01:52:03;6.72;;;3.53;;
59486;SDS011;45298;54.918;73.504;2023-06-14T01:54:32;9.40;;;3.30;;
59486;SDS011;45298;54.918;73.504;2023-06-14T01:57:01;12.40;;;3.50;;
59486;SDS011;45298;54.918;73.504;2023-06-14T01:59:31;11.93;;;4.10;;
59486;SDS011;45298;54.918;73.504;2023-06-14T02:02:03;10.20;;;3.30;;
59486;SDS011;45298;54.918;73.504;2023-06-14T02:04:32;14.15;;;3.40;;
59486;SDS011;45298;54.918;73.504;2023-06-14T02:07:02;10.05;;;4.03;;
59486;SDS011;45298;54.918;73.504;2023-06-14T02:09:33;11.00;;;3.65;;
59486;SDS011;45298;54.918;73.504;2023-06-14T02:12:03;14.55;;;3.90;;
59486;SDS011;45298;54.918;73.504;2023-06-14T02:14:33;11.68;;;4.15;;
59486;SDS011;45298;54.918;73.504;2023-06-14T02:17:02;12.25;;;3.90;;
59486;SDS011;45298;54.918;73.504;2023-06-14T02:19:31;9.60;;;3.58;;
59486;SDS011;45298;54.918;73.504;2023-06-14T02:22:02;11.18;;;3.50;;
59486;SDS011;45298;54.918;73.504;2023-06-14T02:24:34;7.90;;;3.20;;
59486;SDS011;45298;54.918;73.504;2023-06-14T02:27:07;6.32;;;2.95;;
59486;SDS011;45298;54.918;73.504;2023-06-14T02:29:43;6.03;;;2.75;;
59486;SDS011;45298;54.918;73.504;2023-06-14T02:32:12;8.20;;;3.15;;
59486;SDS011;45298;54.918;73.504;2023-06-14T02:34:41;10.45;;;2.92;;
59486;SDS011;45298;54.918;73.504;2023-06-14T02:37:10;8.32;;;2.90;;
59486;SDS011;45298;54.918;73.504;2023-06-14T02:39:41;8.43;;;3.20;;
59486;SDS011;45298;54.918;73.504;2023-06-14T02:42:10;9.60;;;3.00;;
59486;SDS011;45298;54.918;73.504;2023-06-14T02:44:39;9.02;;;3.00;;
59486;SDS011;45298;54.918;73.504;2023-06-14T02:47:08;7.07;;;3.10;;
59486;SDS011;45298;54.918;73.504;2023-06-14T02:49:38;19.52;;;3.55;;
59486;SDS011;45298;54.918;73.504;2023-06-14T02:52:07;6.88;;;2.70;;
59486;SDS011;45298;54.918;73.504;2023-06-14T02:54:37;6.35;;;2.95;;
59486;SDS011;45298;54.918;73.504;2023-06-14T02:57:06;10.35;;;3.22;;
59486;SDS011;45298;54.918;73.504;2023-06-14T02:59:40;7.17;;;2.73;;
59486;SDS011;45298;54.918;73.504;2023-06-14T03:02:09;13.23;;;3.00;;
59486;SDS011;45298;54.918;73.504;2023-06-14T03:04:38;6.18;;;2.80;;
59486;SDS011;45298;54.918;73.504;2023-06-14T03:07:12;12.20;;;2.92;;
59486;SDS011;45298;54.918;73.504;2023-06-14T03:09:43;11.88;;;3.15;;
59486;SDS011;45298;54.918;73.504;2023-06-14T03:12:12;10.80;;;2.90;;
59486;SDS011;45298;54.918;73.504;2023-06-14T03:14:41;7.63;;;2.90;;
59486;SDS011;45298;54.918;73.504;2023-06-14T03:17:11;8.50;;;2.97;;
59486;SDS011;45298;54.918;73.504;2023-06-14T03:19:40;6.47;;;2.33;;
59486;SDS011;45298;54.918;73.504;2023-06-14T03:22:09;8.25;;;2.70;;
59486;SDS011;45298;54.918;73.504;2023-06-14T03:24:40;10.85;;;3.00;;
59486;SDS011;45298;54.918;73.504;2023-06-14T03:27:11;14.57;;;3.20;;
59486;SDS011;45298;54.918;73.504;2023-06-14T03:29:43;5.63;;;2.75;;
59486;SDS011;45298;54.918;73.504;2023-06-14T03:32:12;5.05;;;2.72;;
59486;SDS011;45298;54.918;73.504;2023-06-14T03:34:43;7.57;;;2.70;;
59486;SDS011;45298;54.918;73.504;2023-06-14T03:37:18;6.22;;;3.00;;
59486;SDS011;45298;54.918;73.504;2023-06-14T03:39:47;8.45;;;3.60;;
59486;SDS011;45298;54.918;73.504;2023-06-14T03:42:20;9.02;;;3.30;;
59486;SDS011;45298;54.918;73.504;2023-06-14T03:44:50;7.53;;;3.20;;
59486;SDS011;45298;54.918;73.504;2023-06-14T03:47:23;13.88;;;3.22;;
59486;SDS011;45298;54.918;73.504;2023-06-14T03:49:52;7.28;;;3.10;;
59486;SDS011;45298;54.918;73.504;2023-06-14T03:52:21;5.25;;;2.58;;
59486;SDS011;45298;54.918;73.504;2023-06-14T03:54:52;6.07;;;2.95;;
59486;SDS011;45298;54.918;73.504;2023-06-14T03:57:42;7.40;;;2.70;;
59486;SDS011;45298;54.918;73.504;2023-06-14T04:00:15;5.25;;;2.88;;
59486;SDS011;45298;54.918;73.504;2023-06-14T04:02:45;5.40;;;3.00;;
59486;SDS011;45298;54.918;73.504;2023-06-14T04:05:14;6.95;;;4.05;;
59486;SDS011;45298;54.918;73.504;2023-06-14T04:07:48;6.40;;;3.00;;
59486;SDS011;45298;54.918;73.504;2023-06-14T04:10:19;6.20;;;3.60;;
59486;SDS011;45298;54.918;73.504;2023-06-14T04:12:49;7.22;;;3.00;;
59486;SDS011;45298;54.918;73.504;2023-06-14T04:15:19;5.68;;;2.83;;
59486;SDS011;45298;54.918;73.504;2023-06-14T04:17:52;7.55;;;2.53;;
59486;SDS011;45298;54.918;73.504;2023-06-14T04:20:25;6.45;;;2.90;;
59486;SDS011;45298;54.918;73.504;2023-06-14T04:22:56;6.72;;;3.03;;
59486;SDS011;45298;54.918;73.504;2023-06-14T04:25:26;7.53;;;3.03;;
59486;SDS011;45298;54.918;73.504;2023-06-14T04:28:00;9.23;;;3.40;;
59486;SDS011;45298;54.918;73.504;2023-06-14T04:30:29;5.20;;;2.95;;
59486;SDS011;45298;54.918;73.504;2023-06-14T04:33:00;6.30;;;2.90;;
59486;SDS011;45298;54.918;73.504;2023-06-14T04:35:29;11.30;;;3.00;;
59486;SDS011;45298;54.918;73.504;2023-06-14T04:38:00;14.25;;;7.80;;
59486;SDS011;45298;54.918;73.504;2023-06-14T04:40:31;8.93;;;3.35;;
59486;SDS011;45298;54.918;73.504;2023-06-14T04:43:02;6.38;;;2.80;;
59486;SDS011;45298;54.918;73.504;2023-06-14T04:45:35;5.95;;;2.58;;
59486;SDS011;45298;54.918;73.504;2023-06-14T04:48:06;5.55;;;2.63;;
59486;SDS011;45298;54.918;73.504;2023-06-14T04:50:35;4.75;;;2.45;;
59486;SDS011;45298;54.918;73.504;2023-06-14T04:53:04;7.63;;;2.38;;
59486;SDS011;45298;54.918;73.504;2023-06-14T04:55:34;4.30;;;2.20;;
59486;SDS011;45298;54.918;73.504;2023-06-14T04:58:04;6.38;;;2.40;;
59486;SDS011;45298;54.918;73.504;2023-06-14T05:00:34;5.10;;;2.28;;
59486;SDS011;45298;54.918;73.504;2023-06-14T05:03:05;4.50;;;2.20;;
59486;SDS011;45298;54.918;73.504;2023-06-14T05:05:34;4.00;;;2.33;;
59486;SDS011;45298;54.918;73.504;2023-06-14T05:08:03;7.93;;;2.20;;
59486;SDS011;45298;54.918;73.504;2023-06-14T05:10:32;7.13;;;2.58;;
59486;SDS011;45298;54.918;73.504;2023-06-14T05:13:03;5.18;;;2.20;;
59486;SDS011;45298;54.918;73.504;2023-06-14T05:15:32;6.35;;;2.40;;
59486;SDS011;45298;54.918;73.504;2023-06-14T05:18:02;4.25;;;2.10;;
59486;SDS011;45298;54.918;73.504;2023-06-14T05:20:30;8.90;;;2.40;;
59486;SDS011;45298;54.918;73.504;2023-06-14T05:23:00;6.20;;;2.55;;
59486;SDS011;45298;54.918;73.504;2023-06-14T05:25:29;5.55;;;2.40;;
59486;SDS011;45298;54.918;73.504;2023-06-14T05:27:58;4.03;;;2.20;;
59486;SDS011;45298;54.918;73.504;2023-06-14T05:30:29;5.35;;;3.00;;
59486;SDS011;45298;54.918;73.504;2023-06-14T05:33:09;5.07;;;2.38;;
59486;SDS011;45298;54.918;73.504;2023-06-14T05:35:38;4.72;;;2.42;;
59486;SDS011;45298;54.918;73.504;2023-06-14T05:38:07;7.47;;;2.40;;
59486;SDS011;45298;54.918;73.504;2023-06-14T05:40:36;5.22;;;2.70;;
59486;SDS011;45298;54.918;73.504;2023-06-14T05:43:05;5.25;;;2.30;;
59486;SDS011;45298;54.918;73.504;2023-06-14T05:45:34;4.03;;;2.40;;
59486;SDS011;45298;54.918;73.504;2023-06-14T05:48:03;5.95;;;2.38;;
59486;SDS011;45298;54.918;73.504;2023-06-14T05:50:33;6.20;;;2.50;;
59486;SDS011;45298;54.918;73.504;2023-06-14T05:53:01;5.13;;;3.15;;
59486;SDS011;45298;54.918;73.504;2023-06-14T05:55:31;8.20;;;2.78;;
59486;SDS011;45298;54.918;73.504;2023-06-14T05:57:59;15.68;;;7.57;;
59486;SDS011;45298;54.918;73.504;2023-06-14T06:00:28;8.90;;;4.07;;
59486;SDS011;45298;54.918;73.504;2023-06-14T06:02:57;4.95;;;2.30;;
59486;SDS011;45298;54.918;73.504;2023-06-14T06:05:27;7.85;;;3.85;;
59486;SDS011;45298;54.918;73.504;2023-06-14T06:07:56;7.25;;;2.80;;
59486;SDS011;45298;54.918;73.504;2023-06-14T06:10:28;4.53;;;2.95;;
59486;SDS011;45298;54.918;73.504;2023-06-14T06:12:57;7.18;;;2.58;;
59486;SDS011;45298;54.918;73.504;2023-06-14T06:15:26;5.68;;;2.70;;
59486;SDS011;45298;54.918;73.504;2023-06-14T06:17:55;7.60;;;2.60;;
59486;SDS011;45298;54.918;73.504;2023-06-14T06:20:28;11.15;;;2.67;;
59486;SDS011;45298;54.918;73.504;2023-06-14T06:22:59;4.53;;;2.45;;
59486;SDS011;45298;54.918;73.504;2023-06-14T06:25:29;4.72;;;2.60;;
59486;SDS011;45298;54.918;73.504;2023-06-14T06:28:01;12.38;;;4.82;;
59486;SDS011;45298;54.918;73.504;2023-06-14T06:30:32;8.98;;;4.10;;
59486;SDS011;45298;54.918;73.504;2023-06-14T06:33:07;4.88;;;2.40;;
59486;SDS011;45298;54.918;73.504;2023-06-14T06:35:37;5.88;;;3.08;;
59486;SDS011;45298;54.918;73.504;2023-06-14T06:38:06;8.68;;;3.15;;
59486;SDS011;45298;54.918;73.504;2023-06-14T06:40:34;9.00;;;2.60;;
59486;SDS011;45298;54.918;73.504;2023-06-14T06:43:04;5.97;;;2.95;;
59486;SDS011;45298;54.918;73.504;2023-06-14T06:45:40;6.47;;;2.50;;
59486;SDS011;45298;54.918;73.504;2023-06-14T06:48:10;5.38;;;2.45;;
59486;SDS011;45298;54.918;73.504;2023-06-14T06:50:39;5.93;;;2.20;;
59486;SDS011;45298;54.918;73.504;2023-06-14T06:53:09;12.98;;;2.53;;
59486;SDS011;45298;54.918;73.504;2023-06-14T06:55:38;6.18;;;2.50;;
59486;SDS011;45298;54.918;73.504;2023-06-14T06:58:07;4.22;;;2.20;;
59486;SDS011;45298;54.918;73.504;2023-06-14T07:00:35;4.60;;;2.20;;
59486;SDS011;45298;54.918;73.504;2023-06-14T07:03:07;7.50;;;2.35;;
59486;SDS011;45298;54.918;73.504;2023-06-14T07:05:37;7.60;;;2.28;;
59486;SDS011;45298;54.918;73.504;2023-06-14T07:08:06;15.20;;;2.60;;
59486;SDS011;45298;54.918;73.504;2023-06-14T07:10:35;6.22;;;2.40;;
59486;SDS011;45298;54.918;73.504;2023-06-14T07:13:05;9.73;;;2.38;;
59486;SDS011;45298;54.918;73.504;2023-06-14T07:15:36;4.40;;;2.40;;
59486;SDS011;45298;54.918;73.504;2023-06-14T07:18:05;4.88;;;2.22;;
59486;SDS011;45298;54.918;73.504;2023-06-14T07:20:34;6.30;;;2.45;;
59486;SDS011;45298;54.918;73.504;2023-06-14T07:23:06;4.75;;;2.20;;
59486;SDS011;45298;54.918;73.504;2023-06-14T07:25:35;5.80;;;2.30;;
59486;SDS011;45298;54.918;73.504;2023-06-14T07:28:07;5.63;;;2.20;;
59486;SDS011;45298;54.918;73.504;2023-06-14T07:30:36;7.15;;;2.33;;
59486;SDS011;45298;54.918;73.504;2023-06-14T07:33:05;8.25;;;2.58;;
59486;SDS011;45298;54.918;73.504;2023-06-14T07:35:36;4.93;;;2.30;;
59486;SDS011;45298;54.918;73.504;2023-06-14T07:38:09;10.32;;;2.35;;
59486;SDS011;45298;54.918;73.504;2023-06-14T07:40:38;5.18;;;2.30;;
59486;SDS011;45298;54.918;73.504;2023-06-14T07:43:06;3.45;;;2.15;;
59486;SDS011;45298;54.918;73.504;2023-06-14T07:45:36;4.95;;;2.35;;
59486;SDS011;45298;54.918;73.504;2023-06-14T07:48:11;5.80;;;2.10;;
59486;SDS011;45298;54.918;73.504;2023-06-14T07:50:41;4.03;;;2.30;;
59486;SDS011;45298;54.918;73.504;2023-06-14T07:53:10;3.38;;;2.30;;
59486;SDS011;45298;54.918;73.504;2023-06-14T07:55:39;6.03;;;2.35;;
59486;SDS011;45298;54.918;73.504;2023-06-14T07:58:20;5.43;;;2.08;;
59486;SDS011;45298;54.918;73.504;2023-06-14T08:00:49;3.92;;;2.47;;
59486;SDS011;45298;54.918;73.504;2023-06-14T08:03:18;7.20;;;2.25;;
59486;SDS011;45298;54.918;73.504;2023-06-14T08:05:47;7.05;;;2.35;;
59486;SDS011;45298;54.918;73.504;2023-06-14T08:08:17;10.98;;;2.30;;
59486;SDS011;45298;54.918;73.504;2023-06-14T08:10:46;5.65;;;2.30;;
59486;SDS011;45298;54.918;73.504;2023-06-14T08:13:15;5.13;;;2.38;;
59486;SDS011;45298;54.918;73.504;2023-06-14T08:15:44;9.07;;;2.70;;
59486;SDS011;45298;54.918;73.504;2023-06-14T08:18:13;6.32;;;2.20;;
59486;SDS011;45298;54.918;73.504;2023-06-14T08:20:42;6.57;;;2.30;;
59486;SDS011;45298;54.918;73.504;2023-06-14T08:23:12;7.60;;;2.25;;
59486;SDS011;45298;54.918;73.504;2023-06-14T08:25:41;8.18;;;2.53;;
59486;SDS011;45298;54.918;73.504;2023-06-14T08:28:10;5.25;;;2.08;;
59486;SDS011;45298;54.918;73.504;2023-06-14T08:30:39;6.50;;;2.30;;
59486;SDS011;45298;54.918;73.504;2023-06-14T08:33:07;6.15;;;2.47;;
59486;SDS011;45298;54.918;73.504;2023-06-14T08:35:45;4.57;;;1.88;;
59486;SDS011;45298;54.918;73.504;2023-06-14T08:38:15;6.32;;;2.20;;
59486;SDS011;45298;54.918;73.504;2023-06-14T08:40:45;7.10;;;2.30;;
59486;SDS011;45298;54.918;73.504;2023-06-14T08:43:18;3.40;;;2.22;;
59486;SDS011;45298;54.918;73.504;2023-06-14T08:45:48;4.95;;;2.17;;
59486;SDS011;45298;54.918;73.504;2023-06-14T08:48:21;10.25;;;2.50;;
59486;SDS011;45298;54.918;73.504;2023-06-14T08:50:59;6.57;;;2.53;;
59486;SDS011;45298;54.918;73.504;2023-06-14T08:53:32;5.80;;;2.50;;
59486;SDS011;45298;54.918;73.504;2023-06-14T08:56:08;6.63;;;2.47;;
59486;SDS011;45298;54.918;73.504;2023-06-14T08:58:44;7.20;;;2.40;;
59486;SDS011;45298;54.918;73.504;2023-06-14T09:01:16;8.95;;;2.40;;
59486;SDS011;45298;54.918;73.504;2023-06-14T09:03:45;7.07;;;2.53;;
59486;SDS011;45298;54.918;73.504;2023-06-14T09:06:16;5.68;;;2.60;;
59486;SDS011;45298;54.918;73.504;2023-06-14T09:08:47;8.75;;;2.40;;
59486;SDS011;45298;54.918;73.504;2023-06-14T09:11:17;9.50;;;2.20;;
59486;SDS011;45298;54.918;73.504;2023-06-14T09:13:48;5.70;;;2.33;;
59486;SDS011;45298;54.918;73.504;2023-06-14T09:16:18;15.45;;;2.60;;
59486;SDS011;45298;54.918;73.504;2023-06-14T09:18:47;3.58;;;2.00;;
59486;SDS011;45298;54.918;73.504;2023-06-14T09:21:17;3.88;;;2.13;;
59486;SDS011;45298;54.918;73.504;2023-06-14T09:23:46;8.40;;;2.10;;
59486;SDS011;45298;54.918;73.504;2023-06-14T09:26:19;5.18;;;2.15;;
59486;SDS011;45298;54.918;73.504;2023-06-14T09:28:49;4.05;;;2.17;;
59486;SDS011;45298;54.918;73.504;2023-06-14T09:31:19;4.97;;;2.35;;
59486;SDS011;45298;54.918;73.504;2023-06-14T09:33:49;6.35;;;2.25;;
59486;SDS011;45298;54.918;73.504;2023-06-14T09:36:22;5.65;;;2.10;;
59486;SDS011;45298;54.918;73.504;2023-06-14T09:41:32;6.10;;;2.20;;
59486;SDS011;45298;54.918;73.504;2023-06-14T09:44:04;4.15;;;2.10;;
59486;SDS011;45298;54.918;73.504;2023-06-14T09:46:45;8.00;;;2.22;;
59486;SDS011;45298;54.918;73.504;2023-06-14T09:49:15;6.85;;;2.20;;
59486;SDS011;45298;54.918;73.504;2023-06-14T09:51:45;10.07;;;2.30;;
59486;SDS011;45298;54.918;73.504;2023-06-14T09:54:20;4.95;;;2.00;;
59486;SDS011;45298;54.918;73.504;2023-06-14T09:56:51;6.35;;;1.80;;
59486;SDS011;45298;54.918;73.504;2023-06-14T09:59:21;5.65;;;2.10;;
59486;SDS011;45298;54.918;73.504;2023-06-14T10:01:57;8.02;;;2.40;;
59486;SDS011;45298;54.918;73.504;2023-06-14T10:04:28;7.85;;;2.15;;
59486;SDS011;45298;54.918;73.504;2023-06-14T10:06:59;5.35;;;1.98;;
59486;SDS011;45298;54.918;73.504;2023-06-14T10:09:30;5.85;;;2.30;;
59486;SDS011;45298;54.918;73.504;2023-06-14T10:12:00;4.75;;;2.20;;
59486;SDS011;45298;54.918;73.504;2023-06-14T10:14:29;9.75;;;4.22;;
59486;SDS011;45298;54.918;73.504;2023-06-14T10:22:42;7.57;;;2.10;;
59486;SDS011;45298;54.918;73.504;2023-06-14T10:25:27;3.67;;;2.33;;
59486;SDS011;45298;54.918;73.504;2023-06-14T10:28:14;8.95;;;2.60;;
59486;SDS011;45298;54.918;73.504;2023-06-14T10:31:02;3.60;;;2.20;;
59486;SDS011;45298;54.918;73.504;2023-06-14T10:33:36;4.30;;;2.10;;
59486;SDS011;45298;54.918;73.504;2023-06-14T10:36:24;8.10;;;2.15;;
59486;SDS011;45298;54.918;73.504;2023-06-14T10:41:28;6.43;;;2.28;;
59486;SDS011;45298;54.918;73.504;2023-06-14T10:46:51;4.72;;;2.17;;
59486;SDS011;45298;54.918;73.504;2023-06-14T10:49:40;11.20;;;2.50;;
59486;SDS011;45298;54.918;73.504;2023-06-14T10:52:14;7.43;;;2.55;;
59486;SDS011;45298;54.918;73.504;2023-06-14T10:55:06;9.43;;;3.97;;
59486;SDS011;45298;54.918;73.504;2023-06-14T11:00:19;4.97;;;2.25;;
59486;SDS011;45298;54.918;73.504;2023-06-14T11:05:48;8.70;;;2.55;;
59486;SDS011;45298;54.918;73.504;2023-06-14T11:11:21;5.85;;;2.42;;
59486;SDS011;45298;54.918;73.504;2023-06-14T11:13:54;12.20;;;3.00;;
59486;SDS011;45298;54.918;73.504;2023-06-14T11:16:25;4.63;;;2.50;;
59486;SDS011;45298;54.918;73.504;2023-06-14T11:18:56;4.85;;;2.42;;
59486;SDS011;45298;54.918;73.504;2023-06-14T11:21:24;8.65;;;2.33;;
59486;SDS011;45298;54.918;73.504;2023-06-14T11:23:58;8.00;;;2.40;;
59486;SDS011;45298;54.918;73.504;2023-06-14T11:26:28;3.67;;;2.63;;
59486;SDS011;45298;54.918;73.504;2023-06-14T11:28:59;5.88;;;2.45;;
59486;SDS011;45298;54.918;73.504;2023-06-14T11:31:29;4.95;;;2.25;;
59486;SDS011;45298;54.918;73.504;2023-06-14T11:33:59;5.57;;;2.30;;
59486;SDS011;45298;54.918;73.504;2023-06-14T11:36:29;5.85;;;2.47;;
59486;SDS011;45298;54.918;73.504;2023-06-14T11:41:41;8.45;;;2.60;;
59486;SDS011;45298;54.918;73.504;2023-06-14T11:44:11;7.82;;;2.65;;
59486;SDS011;45298;54.918;73.504;2023-06-14T11:46:41;6.45;;;2.50;;
59486;SDS011;45298;54.918;73.504;2023-06-14T11:49:10;4.82;;;2.70;;
59486;SDS011;45298;54.918;73.504;2023-06-14T11:51:42;6.25;;;2.65;;
59486;SDS011;45298;54.918;73.504;2023-06-14T11:54:11;4.78;;;2.60;;
59486;SDS011;45298;54.918;73.504;2023-06-14T11:56:40;6.38;;;2.70;;
59486;SDS011;45298;54.918;73.504;2023-06-14T11:59:10;8.32;;;2.67;;
59486;SDS011;45298;54.918;73.504;2023-06-14T12:01:42;7.32;;;2.55;;
59486;SDS011;45298;54.918;73.504;2023-06-14T12:04:12;6.10;;;2.50;;
59486;SDS011;45298;54.918;73.504;2023-06-14T12:06:41;5.75;;;2.78;;
59486;SDS011;45298;54.918;73.504;2023-06-14T12:09:11;5.60;;;2.55;;
59486;SDS011;45298;54.918;73.504;2023-06-14T12:11:45;9.35;;;2.80;;
59486;SDS011;45298;54.918;73.504;2023-06-14T12:14:14;5.22;;;2.40;;
59486;SDS011;45298;54.918;73.504;2023-06-14T12:16:43;7.00;;;2.88;;
59486;SDS011;45298;54.918;73.504;2023-06-14T12:19:13;8.15;;;2.53;;
59486;SDS011;45298;54.918;73.504;2023-06-14T12:21:46;15.30;;;3.08;;
59486;SDS011;45298;54.918;73.504;2023-06-14T12:24:16;7.75;;;2.60;;
59486;SDS011;45298;54.918;73.504;2023-06-14T12:26:45;6.13;;;2.80;;
59486;SDS011;45298;54.918;73.504;2023-06-14T12:29:15;6.90;;;2.60;;
59486;SDS011;45298;54.918;73.504;2023-06-14T12:31:43;8.98;;;2.80;;
59486;SDS011;45298;54.918;73.504;2023-06-14T12:34:13;6.00;;;2.78;;
59486;SDS011;45298;54.918;73.504;2023-06-14T12:36:41;9.35;;;4.43;;
59486;SDS011;45298;54.918;73.504;2023-06-14T12:39:12;7.60;;;4.28;;
59486;SDS011;45298;54.918;73.504;2023-06-14T12:41:42;6.60;;;2.83;;
59486;SDS011;45298;54.918;73.504;2023-06-14T12:44:11;10.27;;;2.80;;
59486;SDS011;45298;54.918;73.504;2023-06-14T12:46:41;9.05;;;2.70;;
59486;SDS011;45298;54.918;73.504;2023-06-14T12:49:13;6.57;;;2.83;;
59486;SDS011;45298;54.918;73.504;2023-06-14T12:51:42;8.07;;;2.72;;
59486;SDS011;45298;54.918;73.504;2023-06-14T12:54:11;7.18;;;2.92;;
59486;SDS011;45298;54.918;73.504;2023-06-14T12:56:54;8.50;;;3.05;;
59486;SDS011;45298;54.918;73.504;2023-06-14T12:59:23;7.75;;;2.92;;
59486;SDS011;45298;54.918;73.504;2023-06-14T13:01:52;4.47;;;2.92;;
59486;SDS011;45298;54.918;73.504;2023-06-14T13:04:22;8.02;;;2.97;;
59486;SDS011;45298;54.918;73.504;2023-06-14T13:06:53;6.82;;;3.10;;
59486;SDS011;45298;54.918;73.504;2023-06-14T13:09:23;7.00;;;2.85;;
59486;SDS011;45298;54.918;73.504;2023-06-14T13:11:51;7.10;;;3.20;;
59486;SDS011;45298;54.918;73.504;2023-06-14T13:14:20;11.40;;;3.30;;
59486;SDS011;45298;54.918;73.504;2023-06-14T13:16:52;12.02;;;3.20;;
59486;SDS011;45298;54.918;73.504;2023-06-14T13:19:21;7.03;;;3.30;;
59486;SDS011;45298;54.918;73.504;2023-06-14T13:21:50;9.10;;;3.33;;
59486;SDS011;45298;54.918;73.504;2023-06-14T13:24:19;8.50;;;4.05;;
59486;SDS011;45298;54.918;73.504;2023-06-14T13:26:49;9.07;;;3.03;;
59486;SDS011;45298;54.918;73.504;2023-06-14T13:29:17;7.88;;;3.25;;
59486;SDS011;45298;54.918;73.504;2023-06-14T13:31:47;8.60;;;3.42;;
59486;SDS011;45298;54.918;73.504;2023-06-14T13:34:15;5.88;;;3.10;;
59486;SDS011;45298;54.918;73.504;2023-06-14T13:36:45;16.38;;;3.78;;
59486;SDS011;45298;54.918;73.504;2023-06-14T13:39:13;13.48;;;3.58;;
59486;SDS011;45298;54.918;73.504;2023-06-14T13:41:42;18.10;;;3.92;;
59486;SDS011;45298;54.918;73.504;2023-06-14T13:44:11;19.98;;;3.75;;
59486;SDS011;45298;54.918;73.504;2023-06-14T13:46:43;16.83;;;3.63;;
59486;SDS011;45298;54.918;73.504;2023-06-14T13:49:12;6.97;;;3.00;;
59486;SDS011;45298;54.918;73.504;2023-06-14T13:51:44;6.13;;;3.42;;
59486;SDS011;45298;54.918;73.504;2023-06-14T13:54:13;10.27;;;3.63;;
59486;SDS011;45298;54.918;73.504;2023-06-14T13:56:45;6.97;;;3.80;;
59486;SDS011;45298;54.918;73.504;2023-06-14T13:59:14;9.77;;;3.50;;
59486;SDS011;45298;54.918;73.504;2023-06-14T14:01:44;7.13;;;3.63;;
59486;SDS011;45298;54.918;73.504;2023-06-14T14:04:13;9.82;;;3.83;;
59486;SDS011;45298;54.918;73.504;2023-06-14T14:06:42;6.07;;;3.58;;
59486;SDS011;45298;54.918;73.504;2023-06-14T14:09:13;8.88;;;3.80;;
59486;SDS011;45298;54.918;73.504;2023-06-14T14:11:42;9.18;;;3.92;;
59486;SDS011;45298;54.918;73.504;2023-06-14T14:14:11;12.27;;;4.13;;
59486;SDS011;45298;54.918;73.504;2023-06-14T14:16:43;9.55;;;4.22;;
59486;SDS011;45298;54.918;73.504;2023-06-14T14:19:12;14.82;;;4.15;;
59486;SDS011;45298;54.918;73.504;2023-06-14T14:21:41;12.63;;;3.88;;
59486;SDS011;45298;54.918;73.504;2023-06-14T14:24:10;12.05;;;3.78;;
59486;SDS011;45298;54.918;73.504;2023-06-14T14:26:39;13.60;;;4.28;;
59486;SDS011;45298;54.918;73.504;2023-06-14T14:29:08;8.90;;;4.43;;
59486;SDS011;45298;54.918;73.504;2023-06-14T14:31:39;14.05;;;4.28;;
59486;SDS011;45298;54.918;73.504;2023-06-14T14:34:08;15.73;;;4.65;;
59486;SDS011;45298;54.918;73.504;2023-06-14T14:36:37;16.65;;;4.32;;
59486;SDS011;45298;54.918;73.504;2023-06-14T14:39:10;14.73;;;4.30;;
59486;SDS011;45298;54.918;73.504;2023-06-14T14:41:39;10.90;;;3.90;;
59486;SDS011;45298;54.918;73.504;2023-06-14T14:44:09;12.52;;;3.97;;
59486;SDS011;45298;54.918;73.504;2023-06-14T14:46:38;14.70;;;4.75;;
59486;SDS011;45298;54.918;73.504;2023-06-14T14:49:07;17.33;;;7.38;;
59486;SDS011;45298;54.918;73.504;2023-06-14T14:51:36;13.23;;;5.93;;
59486;SDS011;45298;54.918;73.504;2023-06-14T14:54:06;14.80;;;5.75;;
59486;SDS011;45298;54.918;73.504;2023-06-14T14:56:35;19.45;;;6.15;;
59486;SDS011;45298;54.918;73.504;2023-06-14T14:59:06;13.07;;;5.70;;
59486;SDS011;45298;54.918;73.504;2023-06-14T15:01:34;19.08;;;6.40;;
59486;SDS011;45298;54.918;73.504;2023-06-14T15:04:03;18.15;;;6.07;;
59486;SDS011;45298;54.918;73.504;2023-06-14T15:06:33;14.55;;;6.18;;
59486;SDS011;45298;54.918;73.504;2023-06-14T15:09:06;24.52;;;6.78;;
59486;SDS011;45298;54.918;73.504;2023-06-14T15:11:35;14.85;;;5.95;;
59486;SDS011;45298;54.918;73.504;2023-06-14T15:14:04;15.40;;;5.70;;
59486;SDS011;45298;54.918;73.504;2023-06-14T15:16:33;12.32;;;5.97;;
59486;SDS011;45298;54.918;73.504;2023-06-14T15:19:02;13.00;;;5.70;;
59486;SDS011;45298;54.918;73.504;2023-06-14T15:21:31;12.75;;;5.50;;